Погода Пайсандуна 2 недели

Парана, Бразилия

22 июля-03 августа
  • 22июля
    Сегодня
    +15°
    +30°
    Ясно и безоблачно
    ВремяПогодаТемператураВлажностьДавлениеВетер, м/сВероятность осадков
    00:00Ясно и безоблачно+19°C75 %733 мм2.4 м/с5 %
    03:00Ясно и безоблачно+18°C76 %732 мм2.2 м/с5 %
    06:00Ясно и безоблачно+16°C82 %732 мм1.9 м/с5 %
    09:00Ясно и безоблачно+21°C66 %734 мм1.4 м/с5 %
    12:00Ясно и безоблачно+29°C44 %735 мм0.2 м/с5 %
    15:00Ясно и безоблачно+29°C36 %733 мм1.0 м/с5 %
    18:00Ясно и безоблачно+25°C51 %732 мм2.2 м/с5 %
    21:00Ясно и безоблачно+22°C62 %733 мм1.6 м/с5 %
  • 23июля
    Вторник
    +17°
    +30°
    Практически безоблачно
    ВремяПогодаТемператураВлажностьДавлениеВетер, м/сВероятность осадков
    00:00Ясно и безоблачно+19°C67 %733 мм2.2 м/с5 %
    03:00Ясно и безоблачно+18°C72 %733 мм2.4 м/с5 %
    06:00Ясно и безоблачно+17°C76 %733 мм2.2 м/с5 %
    09:00Ясно и безоблачно+21°C63 %735 мм1.7 м/с5 %
    12:00Ясно и безоблачно+28°C37 %735 мм2.1 м/с5 %
    15:00Практически безоблачно+29°C26 %733 мм1.8 м/с5 %
    18:00Ясно и безоблачно+23°C46 %732 мм2.6 м/с5 %
    21:00Практически безоблачно+22°C49 %732 мм2.0 м/с5 %
  • 24июля
    Среда
    +18°
    +30°
    Небольшая облачность
    ВремяПогодаТемператураВлажностьДавлениеВетер, м/сВероятность осадков
    00:00Небольшая облачность+21°C47 %733 мм3.7 м/с5 %
    03:00Практически безоблачно+19°C49 %732 мм4.0 м/с5 %
    06:00Небольшая облачность+18°C53 %732 мм3.4 м/с5 %
    09:00Небольшая облачность+21°C49 %734 мм2.3 м/с5 %
    12:00Облачно с прояснениями+28°C31 %734 мм4.3 м/с5 %
    15:00Небольшая облачность+30°C30 %732 мм2.4 м/с5 %
    18:00Ясно и безоблачно+25°C44 %731 мм2.2 м/с5 %
    21:00Ясно и безоблачно+23°C50 %732 мм1.8 м/с5 %
  • 25июля
    Четверг
    +16°
    +32°
    Ясно и безоблачно
    ВремяПогодаТемператураВлажностьДавлениеВетер, м/сВероятность осадков
    00:00Ясно и безоблачно+21°C55 %732 мм2.9 м/с5 %
    03:00Ясно и безоблачно+19°C65 %732 мм2.9 м/с5 %
    06:00Ясно и безоблачно+18°C65 %731 мм2.8 м/с5 %
    09:00Ясно и безоблачно+23°C53 %733 мм2.1 м/с5 %
    12:00Ясно и безоблачно+30°C33 %732 мм3.8 м/с5 %
    15:00Ясно и безоблачно+32°C28 %730 мм2.1 м/с5 %
    18:00Ясно и безоблачно+26°C47 %730 мм2.3 м/с5 %
    21:00Ясно и безоблачно+24°C50 %730 мм1.6 м/с5 %
Мы используем cookies
Соглашаюсь